CVB weather

Castroville Municipal Airport
Castroville, Texas, United States

Public forecast

Using degrees Fahrenheit for public forecast. Weather courtesy of forecast.io.

METAR (pilot weather report)

Retrieved 2017/12/16 02:35 UTC (0 seconds ago):

KCVB 160235Z AUTO 19003KT 10SM CLR 10/00 A3029 RMK AO2 T01000004

TAF (pilot weather forecast)

Closest forecast is Lackland Air Force Base, 14.3 nm (26.6 km) E. Retrieved 2017/12/16 02:06 UTC (4 minutes ago):

TAF KSKF 160200Z 1602/1708 15006KT 9999 BKN200 QNH3016INS BECMG 1611/1612 20006KT 9999 BKN060 BKN150 QNH3010INS BECMG 1617/1618 22006KT 8000 -RA BKN015 QNH3005INS BECMG 1620/1621 15009KT 6000 -RA BKN007 510203 QNH3002INS BECMG 1705/1706 23006KT 9999 NSW OVC005 QNH3003INS TX11/1618Z TN04/1611Z